Login to view Products
 
Thursday, November 26, 2020 (04:27 UTC)
Fujairah International Airport
ICAO: OMFJ
IATA: FJR
  • METAR OMFJ 260400Z 30004KT 9999 FEW025 23/15 Q1020 A3012=
  • TAF OMFJ 252300Z 2600/2706 VRB03KT CAVOK BECMG 2604/2606 10010KT FEW025 BECMG 2622/2624 VRB03KT BECMG 2703/2705 09008KT=
D:\Input Parser\Destinations\Final\23\OMFJL00062300577169893.txt
1